createdAt,value
2022-10-02T00:00:22.272Z,13.40
2022-10-02T00:01:17.566Z,13.40
2022-10-02T00:02:20.578Z,13.60
2022-10-02T00:03:21.734Z,13.40
2022-10-02T00:04:21.140Z,13.40
2022-10-02T00:05:21.393Z,13.50
2022-10-02T00:06:21.115Z,13.40
2022-10-02T00:07:18.812Z,13.40
2022-10-02T00:08:23.892Z,13.40
2022-10-02T00:09:18.904Z,13.40
2022-10-02T00:10:20.611Z,13.40
2022-10-02T00:11:20.700Z,13.40
2022-10-02T00:12:24.191Z,13.40
2022-10-02T00:13:20.231Z,13.30
2022-10-02T00:14:18.544Z,13.30
2022-10-02T00:15:20.769Z,13.20
2022-10-02T00:16:20.962Z,13.40
2022-10-02T00:17:20.197Z,13.30
2022-10-02T00:18:19.954Z,13.20
2022-10-02T00:19:18.195Z,13.20
2022-10-02T00:20:21.635Z,13.20
2022-10-02T00:21:18.121Z,13.30
2022-10-02T00:22:18.914Z,13.40
2022-10-02T00:23:19.824Z,13.30
2022-10-02T00:24:20.870Z,13.40
2022-10-02T00:25:18.481Z,13.20
2022-10-02T00:26:21.930Z,13.20
2022-10-02T00:27:18.411Z,13.20
2022-10-02T00:28:20.383Z,13.30
2022-10-02T00:29:21.480Z,13.30
2022-10-02T00:30:21.195Z,13.30
2022-10-02T00:31:20.222Z,13.40
2022-10-02T00:32:18.958Z,13.40
2022-10-02T00:33:19.193Z,13.40
2022-10-02T00:34:21.277Z,13.40
2022-10-02T00:35:25.475Z,13.40
2022-10-02T00:36:20.972Z,13.40
2022-10-02T00:37:21.496Z,13.30
2022-10-02T00:38:19.698Z,13.50
2022-10-02T00:39:16.341Z,13.70
2022-10-02T00:40:20.077Z,13.50
2022-10-02T00:41:21.761Z,13.40
2022-10-02T00:42:20.037Z,13.40
2022-10-02T00:43:16.013Z,13.50
2022-10-02T00:44:18.640Z,13.40
2022-10-02T00:45:22.975Z,13.30
2022-10-02T00:46:20.571Z,13.40
2022-10-02T00:47:16.881Z,13.40
2022-10-02T00:48:16.001Z,13.30
2022-10-02T00:49:20.408Z,13.40
2022-10-02T00:50:20.088Z,13.40
2022-10-02T00:51:19.871Z,13.30
2022-10-02T00:52:18.438Z,13.40
2022-10-02T00:53:19.768Z,13.40
2022-10-02T00:54:21.393Z,13.40
2022-10-02T00:55:18.937Z,13.40
2022-10-02T00:56:19.771Z,13.40
2022-10-02T00:57:17.833Z,13.50
2022-10-02T00:58:18.285Z,13.50
2022-10-02T00:59:20.828Z,13.50
2022-10-02T01:00:21.345Z,13.50
2022-10-02T01:01:18.757Z,13.60
2022-10-02T01:02:19.054Z,13.60
2022-10-02T01:03:20.958Z,13.50
2022-10-02T01:04:20.781Z,13.70
2022-10-02T01:05:18.331Z,13.60
2022-10-02T01:06:19.635Z,13.70
2022-10-02T01:07:19.938Z,13.60
2022-10-02T01:08:20.608Z,13.60
2022-10-02T01:09:20.466Z,13.60
2022-10-02T01:10:19.604Z,13.70
2022-10-02T01:11:20.605Z,13.60
2022-10-02T01:12:19.996Z,13.70
2022-10-02T01:13:18.998Z,13.70
2022-10-02T01:14:22.375Z,13.60
2022-10-02T01:15:20.132Z,13.70
2022-10-02T01:16:21.776Z,13.60
2022-10-02T01:17:20.750Z,13.80
2022-10-02T01:18:21.651Z,13.60
2022-10-02T01:19:19.800Z,13.60
2022-10-02T01:20:21.162Z,13.70
2022-10-02T01:21:20.678Z,13.80
2022-10-02T01:22:20.971Z,13.70
2022-10-02T01:23:19.351Z,13.80
2022-10-02T01:24:18.748Z,13.70
2022-10-02T01:25:22.574Z,13.60
2022-10-02T01:26:17.768Z,13.70
2022-10-02T01:27:23.241Z,13.60
2022-10-02T01:28:22.169Z,13.70
2022-10-02T01:29:22.466Z,13.70
2022-10-02T01:30:20.570Z,13.80
2022-10-02T01:31:19.682Z,13.80
2022-10-02T01:32:17.835Z,13.80
2022-10-02T01:33:22.584Z,13.80
2022-10-02T01:34:22.124Z,13.80
2022-10-02T01:35:20.483Z,13.90
2022-10-02T01:36:21.756Z,13.90
2022-10-02T01:37:20.143Z,13.80
2022-10-02T01:38:20.958Z,13.90
2022-10-02T01:39:21.402Z,13.90
2022-10-02T01:40:18.450Z,13.90
2022-10-02T01:41:22.121Z,14.00
2022-10-02T01:42:19.802Z,13.90
2022-10-02T01:43:21.401Z,14.10
2022-10-02T01:44:21.895Z,14.20
2022-10-02T01:45:19.392Z,14.40
2022-10-02T01:46:19.628Z,14.20
2022-10-02T01:47:21.938Z,14.30
2022-10-02T01:48:20.379Z,14.20
2022-10-02T01:49:19.188Z,14.20
2022-10-02T01:50:18.488Z,14.20
2022-10-02T01:51:22.247Z,14.30
2022-10-02T01:52:19.329Z,14.50
2022-10-02T01:53:21.831Z,14.40
2022-10-02T01:54:20.950Z,14.40
2022-10-02T01:55:22.204Z,14.30
2022-10-02T01:56:20.946Z,14.40
2022-10-02T01:57:18.868Z,14.10
2022-10-02T01:58:18.462Z,14.30
2022-10-02T01:59:19.962Z,14.30
2022-10-02T02:00:19.301Z,14.50
2022-10-02T02:01:20.326Z,14.30
2022-10-02T02:02:21.666Z,14.30
2022-10-02T02:03:21.327Z,14.30
2022-10-02T02:04:19.430Z,14.20
2022-10-02T02:05:22.148Z,14.40
2022-10-02T02:06:21.788Z,14.30
2022-10-02T02:07:23.063Z,14.20
2022-10-02T02:08:20.646Z,14.20
2022-10-02T02:09:22.555Z,14.40
2022-10-02T02:10:21.747Z,14.40
2022-10-02T02:11:21.329Z,14.30
2022-10-02T02:12:22.766Z,14.40
2022-10-02T02:13:22.028Z,14.20
2022-10-02T02:14:19.612Z,14.20
2022-10-02T02:15:22.576Z,14.10
2022-10-02T02:16:20.529Z,14.10
2022-10-02T02:17:22.264Z,14.20
2022-10-02T02:18:20.877Z,14.30
2022-10-02T02:19:22.115Z,14.40
2022-10-02T02:20:22.568Z,14.40
2022-10-02T02:21:22.166Z,14.40
2022-10-02T02:22:19.586Z,14.30
2022-10-02T02:23:19.541Z,14.40
2022-10-02T02:24:22.752Z,14.40
2022-10-02T02:25:22.943Z,14.40
2022-10-02T02:26:18.209Z,14.50
2022-10-02T02:27:19.719Z,14.40
2022-10-02T02:28:23.346Z,14.50
2022-10-02T02:29:22.016Z,14.60
2022-10-02T02:30:22.068Z,14.50
2022-10-02T02:31:20.139Z,14.40
2022-10-02T02:32:22.125Z,14.40
2022-10-02T02:33:22.187Z,14.50
2022-10-02T02:34:19.543Z,14.50
2022-10-02T02:35:21.776Z,14.50
2022-10-02T02:36:23.579Z,14.40
2022-10-02T02:37:22.165Z,14.50
2022-10-02T02:38:20.472Z,14.50
2022-10-02T02:39:19.913Z,14.40
2022-10-02T02:40:21.579Z,14.50
2022-10-02T02:41:22.115Z,14.50
2022-10-02T02:42:25.158Z,14.40
2022-10-02T02:43:21.785Z,14.40
2022-10-02T02:44:19.380Z,14.50
2022-10-02T02:45:23.367Z,14.50
2022-10-02T02:46:20.565Z,14.50
2022-10-02T02:47:19.040Z,14.50
2022-10-02T02:48:21.994Z,14.50
2022-10-02T02:49:18.653Z,14.50
2022-10-02T02:50:23.232Z,14.50
2022-10-02T02:51:21.938Z,14.40
2022-10-02T02:52:18.616Z,14.40
2022-10-02T02:53:22.291Z,14.40
2022-10-02T02:54:21.482Z,14.40
2022-10-02T02:55:22.061Z,14.40
2022-10-02T02:56:18.736Z,14.40
2022-10-02T02:57:22.071Z,14.50
2022-10-02T02:58:22.154Z,14.40
2022-10-02T02:59:22.300Z,14.60
2022-10-02T03:00:21.629Z,14.50
2022-10-02T03:01:20.447Z,14.50
2022-10-02T03:02:22.537Z,14.40
2022-10-02T03:03:20.914Z,14.50
2022-10-02T03:04:20.473Z,14.50
2022-10-02T03:05:21.275Z,14.50
2022-10-02T03:06:20.942Z,14.50
2022-10-02T03:07:21.064Z,14.50
2022-10-02T03:08:21.165Z,14.60
2022-10-02T03:09:21.217Z,14.50
2022-10-02T03:10:21.838Z,14.60
2022-10-02T03:11:22.340Z,14.40
2022-10-02T03:12:21.106Z,14.50
2022-10-02T03:13:21.542Z,14.40
2022-10-02T03:14:21.677Z,14.40
2022-10-02T03:15:22.030Z,14.60
2022-10-02T03:16:21.792Z,14.60
2022-10-02T03:17:21.870Z,14.50
2022-10-02T03:18:20.998Z,14.50
2022-10-02T03:19:19.516Z,14.50
2022-10-02T03:20:22.484Z,14.40
2022-10-02T03:21:21.196Z,14.30
2022-10-02T03:22:22.107Z,14.40
2022-10-02T03:23:20.934Z,14.40
2022-10-02T03:24:13.926Z,14.30
2022-10-02T03:25:13.176Z,14.30
2022-10-02T03:26:13.387Z,14.30
2022-10-02T03:27:13.324Z,14.30
2022-10-02T03:28:13.601Z,14.20
2022-10-02T03:29:13.468Z,14.30
2022-10-02T03:30:13.357Z,14.20
2022-10-02T03:31:13.615Z,14.20
2022-10-02T03:32:13.508Z,14.10
2022-10-02T03:33:13.341Z,14.10
2022-10-02T03:34:13.248Z,14.20
2022-10-02T03:35:13.206Z,14.20
2022-10-02T03:36:13.182Z,14.10
2022-10-02T03:37:13.060Z,14.10
2022-10-02T03:38:13.366Z,14.10
2022-10-02T03:39:24.822Z,14.30
2022-10-02T03:40:13.776Z,14.20
2022-10-02T03:41:13.811Z,14.20
2022-10-02T03:42:13.783Z,14.10
2022-10-02T03:43:13.698Z,14.20
2022-10-02T03:44:13.541Z,14.40
2022-10-02T03:45:27.254Z,14.20
2022-10-02T03:46:13.159Z,14.30
2022-10-02T03:47:13.099Z,14.20
2022-10-02T03:48:13.018Z,14.30
2022-10-02T03:49:12.976Z,14.30
2022-10-02T03:50:12.850Z,14.30
2022-10-02T03:51:13.820Z,14.50
2022-10-02T03:52:13.734Z,14.40
2022-10-02T03:53:14.004Z,14.30
2022-10-02T03:54:13.012Z,14.30
2022-10-02T03:55:13.100Z,14.40
2022-10-02T03:56:13.138Z,14.40
2022-10-02T03:57:14.213Z,14.40
2022-10-02T03:58:13.453Z,14.40
2022-10-02T03:59:13.864Z,14.50
2022-10-02T04:00:14.057Z,14.60
2022-10-02T04:01:13.098Z,14.50
2022-10-02T04:02:13.112Z,14.70
2022-10-02T04:03:13.164Z,14.80
2022-10-02T04:04:13.183Z,14.60
2022-10-02T04:05:13.119Z,14.70
2022-10-02T04:06:13.016Z,14.70
2022-10-02T04:07:12.935Z,14.60
2022-10-02T04:08:12.979Z,14.80
2022-10-02T04:09:12.996Z,14.80
2022-10-02T04:10:13.205Z,14.90
2022-10-02T04:11:13.285Z,14.90
2022-10-02T04:12:13.447Z,14.90
2022-10-02T04:13:13.570Z,15.00
2022-10-02T04:14:13.622Z,14.80
2022-10-02T04:15:13.734Z,14.70
2022-10-02T04:16:13.899Z,14.80
2022-10-02T04:17:12.946Z,14.70
2022-10-02T04:18:13.071Z,14.90
2022-10-02T04:19:13.237Z,14.90
2022-10-02T04:20:13.257Z,15.00
2022-10-02T04:21:18.403Z,15.00
2022-10-02T04:22:13.473Z,14.80
2022-10-02T04:23:13.427Z,14.90
2022-10-02T04:24:13.308Z,14.80
2022-10-02T04:25:13.200Z,14.80
2022-10-02T04:26:13.353Z,14.90
2022-10-02T04:27:13.244Z,15.00
2022-10-02T04:28:13.624Z,14.90
2022-10-02T04:29:13.622Z,14.80
2022-10-02T04:30:13.649Z,15.00
2022-10-02T04:31:13.981Z,15.10
2022-10-02T04:32:12.873Z,15.00
2022-10-02T04:33:12.776Z,15.00
2022-10-02T04:34:13.831Z,14.90
2022-10-02T04:35:14.000Z,15.10
2022-10-02T04:36:13.064Z,15.10
2022-10-02T04:37:12.990Z,14.90
2022-10-02T04:38:13.089Z,15.00
2022-10-02T04:39:13.092Z,14.90
2022-10-02T04:40:13.036Z,14.80
2022-10-02T04:41:12.981Z,15.00
2022-10-02T04:42:13.318Z,14.90
2022-10-02T04:43:13.195Z,14.90
2022-10-02T04:44:14.126Z,14.90
2022-10-02T04:45:12.976Z,14.80
2022-10-02T04:46:13.247Z,14.90
2022-10-02T04:47:13.564Z,14.90
2022-10-02T04:48:13.695Z,14.80
2022-10-02T04:49:13.611Z,14.90
2022-10-02T04:50:13.845Z,14.80
2022-10-02T04:51:13.776Z,14.80
2022-10-02T04:52:13.849Z,14.80
2022-10-02T04:53:13.807Z,14.80
2022-10-02T04:54:13.802Z,14.80
2022-10-02T04:55:13.983Z,14.80
2022-10-02T04:56:12.908Z,14.90
2022-10-02T04:57:13.255Z,14.80
2022-10-02T04:58:13.190Z,15.00
2022-10-02T04:59:13.198Z,14.70
2022-10-02T05:00:13.142Z,14.70
2022-10-02T05:01:13.499Z,14.80
2022-10-02T05:02:13.526Z,14.70
2022-10-02T05:03:13.750Z,14.70
2022-10-02T05:04:13.777Z,14.90
2022-10-02T05:05:13.780Z,14.80
2022-10-02T05:06:13.587Z,14.60
2022-10-02T05:07:13.481Z,14.70
2022-10-02T05:08:13.898Z,14.60
2022-10-02T05:09:12.928Z,14.70
2022-10-02T05:10:12.889Z,14.70
2022-10-02T05:11:13.313Z,14.70
2022-10-02T05:12:13.592Z,14.70
2022-10-02T05:13:13.629Z,14.60
2022-10-02T05:14:14.468Z,14.90
2022-10-02T05:15:13.495Z,14.60
2022-10-02T05:16:13.532Z,14.60
2022-10-02T05:17:14.093Z,14.60
2022-10-02T05:18:17.751Z,14.60
2022-10-02T05:19:13.052Z,14.70
2022-10-02T05:20:12.904Z,14.70
2022-10-02T05:21:12.891Z,14.70
2022-10-02T05:22:13.876Z,14.70
2022-10-02T05:23:13.754Z,14.70
2022-10-02T05:24:14.085Z,14.70
2022-10-02T05:25:13.389Z,14.70
2022-10-02T05:26:14.512Z,14.60
2022-10-02T05:27:13.835Z,14.70
2022-10-02T05:28:13.981Z,14.60
2022-10-02T05:29:14.045Z,14.60
2022-10-02T05:30:13.231Z,14.70
2022-10-02T05:31:13.314Z,14.40
2022-10-02T05:32:13.245Z,14.70
2022-10-02T05:33:13.508Z,14.80
2022-10-02T05:34:13.294Z,14.50
2022-10-02T05:35:13.537Z,14.50
2022-10-02T05:36:13.389Z,14.40
2022-10-02T05:37:13.307Z,14.50
2022-10-02T05:38:13.716Z,14.50
2022-10-02T05:39:13.651Z,14.60
2022-10-02T05:40:13.544Z,14.50
2022-10-02T05:41:13.549Z,14.40
2022-10-02T05:42:13.629Z,14.30
2022-10-02T05:43:13.907Z,14.40
2022-10-02T05:44:12.782Z,14.70
2022-10-02T05:45:13.847Z,14.40
2022-10-02T05:46:13.741Z,14.30
2022-10-02T05:47:13.755Z,14.20
2022-10-02T05:48:13.754Z,14.10
2022-10-02T05:49:13.757Z,14.10
2022-10-02T05:50:13.754Z,14.20
2022-10-02T05:51:13.704Z,14.10
2022-10-02T05:52:13.572Z,14.10
2022-10-02T05:53:13.422Z,14.10
2022-10-02T05:54:13.328Z,14.20
2022-10-02T05:55:13.341Z,14.00
2022-10-02T05:56:13.286Z,14.10
2022-10-02T05:57:13.321Z,14.10
2022-10-02T05:58:13.658Z,14.10
2022-10-02T05:59:13.727Z,14.10
2022-10-02T06:00:13.921Z,14.00
2022-10-02T06:01:13.008Z,14.00
2022-10-02T06:02:13.111Z,14.10
2022-10-02T06:03:13.184Z,14.00
2022-10-02T06:04:13.170Z,14.00
2022-10-02T06:05:13.291Z,14.10
2022-10-02T06:06:13.318Z,14.10
2022-10-02T06:07:13.311Z,14.10
2022-10-02T06:08:13.213Z,14.00
2022-10-02T06:09:17.678Z,14.00
2022-10-02T06:10:13.180Z,14.10
2022-10-02T06:11:13.098Z,13.90
2022-10-02T06:12:12.934Z,13.90
2022-10-02T06:13:12.810Z,14.10
2022-10-02T06:14:13.887Z,14.00
2022-10-02T06:15:13.930Z,14.10
2022-10-02T06:16:17.958Z,14.10
2022-10-02T06:17:12.923Z,14.10
2022-10-02T06:18:13.140Z,14.10
2022-10-02T06:19:13.512Z,14.00
2022-10-02T06:20:13.724Z,14.10
2022-10-02T06:21:13.895Z,14.20
2022-10-02T06:22:13.210Z,14.20
2022-10-02T06:23:13.323Z,14.10
2022-10-02T06:24:13.350Z,14.10
2022-10-02T06:25:13.355Z,14.10
2022-10-02T06:26:13.304Z,14.20
2022-10-02T06:27:13.194Z,14.00
2022-10-02T06:28:13.398Z,14.10
2022-10-02T06:29:17.532Z,14.20
2022-10-02T06:30:13.099Z,14.10
2022-10-02T06:31:12.999Z,14.20
2022-10-02T06:33:44.147Z,14.00
2022-10-02T06:34:13.231Z,14.20
2022-10-02T06:35:13.130Z,14.10
2022-10-02T06:36:13.115Z,14.10
2022-10-02T06:37:12.985Z,14.20
2022-10-02T06:38:12.928Z,14.30
2022-10-02T06:39:13.224Z,14.20
2022-10-02T06:40:13.246Z,14.20
2022-10-02T06:41:13.110Z,14.20
2022-10-02T06:42:13.097Z,14.20
2022-10-02T06:43:13.163Z,14.30
2022-10-02T06:44:13.092Z,14.30
2022-10-02T06:45:13.098Z,14.20
2022-10-02T06:46:13.169Z,14.40
2022-10-02T06:47:13.177Z,14.30
2022-10-02T06:48:13.405Z,14.40
2022-10-02T06:49:13.287Z,14.40
2022-10-02T06:50:13.206Z,14.40
2022-10-02T06:51:13.145Z,14.60
2022-10-02T06:52:12.943Z,14.50
2022-10-02T06:53:12.887Z,14.70
2022-10-02T06:54:13.179Z,14.60
2022-10-02T06:55:13.309Z,14.70
2022-10-02T06:56:13.614Z,14.60
2022-10-02T06:57:13.658Z,14.70
2022-10-02T06:58:13.948Z,14.80
2022-10-02T06:59:13.109Z,14.80
2022-10-02T07:00:13.049Z,14.70
2022-10-02T07:01:13.440Z,14.80
2022-10-02T07:02:13.513Z,14.80
2022-10-02T07:03:13.577Z,14.80
2022-10-02T07:04:14.132Z,15.00
2022-10-02T07:05:13.100Z,14.80
2022-10-02T07:06:13.203Z,14.70
2022-10-02T07:07:16.051Z,14.70
2022-10-02T07:08:13.108Z,14.70
2022-10-02T07:09:13.512Z,14.70
2022-10-02T07:10:13.852Z,14.80
2022-10-02T07:11:14.136Z,14.60
2022-10-02T07:12:13.227Z,14.80
2022-10-02T07:13:13.432Z,14.70
2022-10-02T07:14:13.411Z,14.70
2022-10-02T07:15:13.334Z,14.70
2022-10-02T07:16:13.463Z,14.70
2022-10-02T07:17:13.378Z,14.70
2022-10-02T07:18:13.504Z,14.80
2022-10-02T07:19:13.663Z,14.70
2022-10-02T07:20:13.547Z,14.60
2022-10-02T07:21:13.493Z,14.70
2022-10-02T07:22:32.733Z,14.70
2022-10-02T07:23:14.142Z,14.70
2022-10-02T07:24:13.126Z,14.60
2022-10-02T07:25:13.061Z,14.70
2022-10-02T07:26:13.552Z,14.40
2022-10-02T07:27:13.820Z,14.50
2022-10-02T07:28:14.192Z,14.50
2022-10-02T07:29:13.369Z,14.50
2022-10-02T07:30:14.567Z,14.40
2022-10-02T07:31:13.637Z,14.60
2022-10-02T07:32:13.594Z,14.70
2022-10-02T07:33:13.664Z,14.60
2022-10-02T07:34:14.287Z,14.80
2022-10-02T07:35:13.323Z,14.80
2022-10-02T07:36:13.477Z,14.80
2022-10-02T07:37:13.503Z,14.80
2022-10-02T07:38:13.703Z,14.80
2022-10-02T07:39:13.868Z,14.70
2022-10-02T07:40:13.741Z,14.80
2022-10-02T07:41:13.732Z,14.90
2022-10-02T07:42:13.639Z,14.90
2022-10-02T07:43:13.478Z,14.80
2022-10-02T07:44:13.585Z,14.80
2022-10-02T07:45:13.547Z,14.80
2022-10-02T07:46:13.745Z,14.80
2022-10-02T07:47:13.714Z,15.00
2022-10-02T07:48:13.709Z,14.90
2022-10-02T07:49:14.174Z,14.80
2022-10-02T07:50:13.320Z,14.90
2022-10-02T07:51:16.091Z,15.00
2022-10-02T07:52:12.935Z,15.00
2022-10-02T07:53:12.865Z,14.90
2022-10-02T07:54:13.697Z,15.00
2022-10-02T07:55:13.880Z,14.90
2022-10-02T07:56:14.198Z,14.90
2022-10-02T07:57:13.273Z,15.00
2022-10-02T07:58:13.269Z,14.90
2022-10-02T07:59:13.571Z,14.90
2022-10-02T08:00:13.549Z,14.80
2022-10-02T08:01:13.760Z,14.90
2022-10-02T08:02:14.181Z,14.80
2022-10-02T08:03:13.265Z,14.70
2022-10-02T08:04:13.560Z,14.90
2022-10-02T08:05:13.471Z,14.90
2022-10-02T08:06:13.592Z,14.70
2022-10-02T08:07:13.583Z,14.80
2022-10-02T08:08:13.442Z,14.60
2022-10-02T08:09:13.626Z,14.80
2022-10-02T08:10:13.703Z,14.70
2022-10-02T08:11:13.988Z,14.80
2022-10-02T08:12:13.026Z,15.00
2022-10-02T08:13:13.113Z,14.90
2022-10-02T08:14:13.059Z,15.00
2022-10-02T08:15:13.405Z,15.00
2022-10-02T08:16:13.694Z,14.90
2022-10-02T08:17:13.812Z,15.00
2022-10-02T08:18:33.105Z,15.00
2022-10-02T08:19:13.187Z,15.00
2022-10-02T08:20:13.194Z,14.90
2022-10-02T08:21:13.059Z,15.00
2022-10-02T08:22:13.333Z,15.20
2022-10-02T08:23:14.485Z,15.30
2022-10-02T08:24:13.545Z,15.30
2022-10-02T08:25:13.601Z,15.30
2022-10-02T08:26:15.081Z,15.40
2022-10-02T08:27:13.045Z,15.30
2022-10-02T08:28:13.064Z,15.40
2022-10-02T08:29:13.097Z,15.50
2022-10-02T08:30:18.221Z,15.90
2022-10-02T08:31:13.611Z,16.10
2022-10-02T08:32:13.577Z,16.20
2022-10-02T08:33:13.768Z,16.20
2022-10-02T08:34:13.841Z,16.40
2022-10-02T08:35:13.796Z,16.30
2022-10-02T08:36:13.798Z,16.10
2022-10-02T08:37:13.736Z,16.20
2022-10-02T08:38:14.008Z,16.20
2022-10-02T08:39:13.129Z,16.10
2022-10-02T08:40:13.130Z,16.00
2022-10-02T08:41:13.781Z,15.80
2022-10-02T08:42:25.013Z,15.90
2022-10-02T08:43:13.527Z,16.00
2022-10-02T08:44:13.539Z,15.90
2022-10-02T08:45:13.509Z,15.80
2022-10-02T08:46:13.596Z,16.10
2022-10-02T08:47:13.594Z,16.10
2022-10-02T08:48:13.510Z,16.20
2022-10-02T08:49:13.499Z,16.20
2022-10-02T08:51:14.003Z,16.00
2022-10-02T08:52:40.225Z,16.00
2022-10-02T08:53:14.617Z,15.80
2022-10-02T08:54:29.623Z,16.00
2022-10-02T08:55:13.880Z,16.00
2022-10-02T08:56:19.185Z,15.90
2022-10-02T08:57:13.058Z,15.80
2022-10-02T08:58:18.285Z,16.10
2022-10-02T08:59:15.241Z,16.00
2022-10-02T09:00:13.389Z,15.90
2022-10-02T09:01:13.623Z,15.80
2022-10-02T09:02:13.572Z,15.80
2022-10-02T09:03:13.708Z,15.50
2022-10-02T09:04:14.071Z,15.70
2022-10-02T09:05:23.178Z,15.60
2022-10-02T09:06:13.228Z,15.60
2022-10-02T09:07:13.471Z,15.80
2022-10-02T09:08:13.397Z,15.80
2022-10-02T09:09:13.363Z,15.80
2022-10-02T09:10:13.393Z,15.90
2022-10-02T09:11:13.498Z,15.90
2022-10-02T09:13:13.362Z,16.30
2022-10-02T09:14:13.334Z,16.00
2022-10-02T09:15:13.443Z,16.20
2022-10-02T09:16:13.627Z,16.50
2022-10-02T09:17:13.495Z,16.50
2022-10-02T09:18:13.463Z,16.20
2022-10-02T09:19:13.746Z,16.40
2022-10-02T09:20:13.908Z,16.40
2022-10-02T09:21:13.179Z,16.30
2022-10-02T09:22:18.310Z,16.00
2022-10-02T09:23:13.415Z,16.10
2022-10-02T09:24:13.474Z,16.40
2022-10-02T09:25:13.536Z,16.30
2022-10-02T09:26:13.390Z,16.40
2022-10-02T09:27:13.987Z,16.40
2022-10-02T09:28:51.579Z,16.50
2022-10-02T09:29:15.209Z,16.70
2022-10-02T09:30:13.465Z,16.60
2022-10-02T09:31:13.530Z,16.80
2022-10-02T09:32:13.862Z,17.30
2022-10-02T09:33:16.010Z,17.40
2022-10-02T09:34:13.530Z,17.10
2022-10-02T09:35:13.506Z,16.80
2022-10-02T09:36:13.442Z,16.60
2022-10-02T09:37:13.312Z,16.40
2022-10-02T09:38:16.788Z,16.30
2022-10-02T09:39:33.910Z,16.30
2022-10-02T09:40:17.966Z,16.40
2022-10-02T09:41:12.855Z,16.50
2022-10-02T09:42:13.778Z,16.40
2022-10-02T09:43:13.842Z,16.60
2022-10-02T09:44:13.711Z,16.60
2022-10-02T09:45:23.641Z,16.70
2022-10-02T09:46:29.736Z,16.80
2022-10-02T09:47:14.020Z,16.90
2022-10-02T09:48:14.146Z,16.80
2022-10-02T09:49:13.289Z,16.80
2022-10-02T09:50:13.672Z,16.90
2022-10-02T09:51:13.984Z,17.10
2022-10-02T09:52:13.382Z,16.90
2022-10-02T09:53:13.605Z,16.80
2022-10-02T09:54:13.639Z,16.40
2022-10-02T09:55:13.952Z,16.50
2022-10-02T09:56:12.927Z,16.50
2022-10-02T09:57:22.870Z,16.40
2022-10-02T09:58:12.898Z,16.50
2022-10-02T09:59:13.338Z,16.30
2022-10-02T10:00:13.931Z,15.90
2022-10-02T10:01:13.105Z,15.70
2022-10-02T10:02:13.043Z,15.50
2022-10-02T10:03:13.013Z,15.60
2022-10-02T10:04:17.966Z,15.60
2022-10-02T10:06:13.133Z,15.80
2022-10-02T10:07:16.305Z,15.60
2022-10-02T10:08:13.143Z,15.70
2022-10-02T10:09:13.774Z,15.50
2022-10-02T10:10:15.851Z,15.60
2022-10-02T10:11:13.320Z,15.60
2022-10-02T10:12:13.303Z,15.30
2022-10-02T10:13:13.513Z,15.30
2022-10-02T10:14:13.502Z,15.40
2022-10-02T10:15:13.506Z,15.70
2022-10-02T10:16:13.995Z,15.70
2022-10-02T10:17:17.998Z,16.60
2022-10-02T10:18:14.467Z,16.80
2022-10-02T10:19:13.837Z,16.50
2022-10-02T10:20:13.854Z,16.50
2022-10-02T10:21:13.924Z,16.30
2022-10-02T10:22:13.245Z,16.40
2022-10-02T10:23:13.112Z,16.20
2022-10-02T10:24:13.046Z,16.40
2022-10-02T10:25:12.888Z,16.00
2022-10-02T10:26:13.891Z,15.90
2022-10-02T10:27:13.224Z,15.40
2022-10-02T10:28:13.224Z,15.60
2022-10-02T10:29:13.530Z,15.60
2022-10-02T10:30:13.494Z,16.00
2022-10-02T10:31:13.452Z,15.80
2022-10-02T10:32:13.709Z,15.70
2022-10-02T10:33:19.001Z,15.80
2022-10-02T10:34:13.023Z,15.70
2022-10-02T10:35:12.925Z,15.80
2022-10-02T10:36:12.794Z,16.20
2022-10-02T10:37:13.840Z,16.40
2022-10-02T10:38:13.677Z,16.20
2022-10-02T10:39:14.080Z,16.40
2022-10-02T10:40:13.025Z,16.30
2022-10-02T10:41:12.953Z,16.30
2022-10-02T10:42:13.229Z,15.90
2022-10-02T10:43:16.566Z,16.10
2022-10-02T10:44:12.942Z,15.90
2022-10-02T10:45:12.976Z,16.00
2022-10-02T10:46:12.990Z,16.00
2022-10-02T10:47:13.020Z,16.10
2022-10-02T10:48:13.067Z,16.70
2022-10-02T10:49:13.108Z,16.70
2022-10-02T10:50:13.068Z,16.90
2022-10-02T10:51:13.057Z,17.50
2022-10-02T10:52:13.145Z,18.00
2022-10-02T10:53:13.214Z,17.20
2022-10-02T10:54:13.291Z,17.30
2022-10-02T10:55:18.236Z,17.00
2022-10-02T10:56:27.070Z,17.10
2022-10-02T10:57:13.031Z,16.90
2022-10-02T10:58:13.060Z,16.60
2022-10-02T10:59:13.173Z,16.30
2022-10-02T11:00:13.478Z,16.50
2022-10-02T11:01:27.095Z,17.30
2022-10-02T11:02:13.320Z,17.00
2022-10-02T11:03:18.770Z,16.30
2022-10-02T11:04:14.410Z,16.00
2022-10-02T11:05:13.556Z,16.00
2022-10-02T11:06:13.700Z,15.90
2022-10-02T11:07:13.832Z,15.70
2022-10-02T11:08:14.131Z,15.70
2022-10-02T11:09:13.071Z,15.70
2022-10-02T11:10:12.974Z,15.70
2022-10-02T11:11:12.967Z,15.90
2022-10-02T11:12:13.150Z,16.10
2022-10-02T11:13:13.378Z,15.90
2022-10-02T11:14:13.268Z,17.10
2022-10-02T11:15:13.491Z,17.10
2022-10-02T11:16:15.269Z,16.70
2022-10-02T11:17:13.661Z,16.70
2022-10-02T11:18:13.637Z,16.40
2022-10-02T11:19:16.760Z,16.10
2022-10-02T11:20:13.253Z,16.20
2022-10-02T11:21:13.134Z,16.40
2022-10-02T11:22:13.368Z,17.30
2022-10-02T11:23:13.503Z,17.80
2022-10-02T11:24:13.587Z,17.90
2022-10-02T11:25:13.447Z,18.20
2022-10-02T11:26:13.541Z,18.20
2022-10-02T11:27:23.107Z,19.10
2022-10-02T11:28:13.095Z,19.60
2022-10-02T11:29:13.188Z,19.20
2022-10-02T11:30:13.229Z,18.10
2022-10-02T11:31:13.460Z,17.30
2022-10-02T11:32:13.643Z,17.80
2022-10-02T11:33:13.689Z,17.30
2022-10-02T11:34:13.659Z,16.80
2022-10-02T11:35:13.556Z,16.70
2022-10-02T11:36:25.049Z,16.80
2022-10-02T11:37:24.775Z,17.00
2022-10-02T11:38:14.041Z,17.50
2022-10-02T11:39:13.125Z,17.70
2022-10-02T11:40:18.971Z,17.30
2022-10-02T11:41:13.192Z,17.60
2022-10-02T11:42:13.086Z,18.20
2022-10-02T11:43:13.286Z,17.80
2022-10-02T11:44:13.179Z,17.60
2022-10-02T11:45:18.221Z,17.30
2022-10-02T11:46:13.177Z,17.50
2022-10-02T11:47:13.060Z,17.10
2022-10-02T11:48:13.032Z,17.30
2022-10-02T11:49:13.251Z,17.20
2022-10-02T11:50:13.362Z,17.20
2022-10-02T11:51:13.257Z,17.20
2022-10-02T11:52:13.168Z,17.50
2022-10-02T11:53:13.392Z,17.60
2022-10-02T11:54:13.280Z,17.20
2022-10-02T11:55:13.277Z,17.20
2022-10-02T11:56:13.279Z,17.00
2022-10-02T11:57:13.264Z,17.10
2022-10-02T11:58:13.271Z,17.10
2022-10-02T11:59:13.180Z,16.90
2022-10-02T12:00:13.158Z,17.10
2022-10-02T12:01:13.150Z,17.40
2022-10-02T12:02:16.381Z,17.40
2022-10-02T12:03:14.136Z,17.40
2022-10-02T12:04:13.256Z,17.40
2022-10-02T12:06:18.007Z,17.90
2022-10-02T12:07:16.891Z,18.20
2022-10-02T12:08:14.197Z,18.30
2022-10-02T12:09:13.320Z,18.70
2022-10-02T12:10:14.379Z,18.80
2022-10-02T12:11:13.433Z,18.30
2022-10-02T12:13:13.697Z,18.40
2022-10-02T12:14:14.080Z,18.00
2022-10-02T12:15:13.598Z,18.20
2022-10-02T12:16:13.649Z,18.80
2022-10-02T12:17:13.814Z,18.00
2022-10-02T12:18:18.243Z,18.10
2022-10-02T12:19:12.954Z,17.80
2022-10-02T12:20:12.872Z,17.90
2022-10-02T12:21:14.046Z,17.90
2022-10-02T12:22:13.152Z,17.90
2022-10-02T12:23:12.981Z,18.00
2022-10-02T12:24:12.973Z,18.20
2022-10-02T12:25:13.117Z,17.90
2022-10-02T12:26:13.243Z,17.70
2022-10-02T12:27:13.879Z,17.40
2022-10-02T12:28:13.773Z,17.30
2022-10-02T12:29:13.765Z,17.40
2022-10-02T12:30:13.657Z,17.90
2022-10-02T12:31:13.650Z,18.00
2022-10-02T12:32:15.083Z,18.00
2022-10-02T12:33:13.162Z,18.10
2022-10-02T12:34:13.336Z,18.00
2022-10-02T12:35:13.279Z,17.80
2022-10-02T12:36:13.186Z,17.50
2022-10-02T12:37:13.282Z,17.30
2022-10-02T12:38:13.193Z,17.20
2022-10-02T12:39:13.143Z,17.30
2022-10-02T12:40:13.262Z,17.20
2022-10-02T12:41:13.604Z,17.40
2022-10-02T12:42:13.622Z,17.60
2022-10-02T12:43:13.627Z,17.30
2022-10-02T12:44:13.693Z,17.80
2022-10-02T12:45:13.635Z,17.70
2022-10-02T12:46:13.684Z,17.70
2022-10-02T12:47:13.784Z,17.40
2022-10-02T12:48:18.824Z,17.70
2022-10-02T12:49:13.749Z,17.80
2022-10-02T12:50:13.983Z,17.90
2022-10-02T12:51:13.280Z,17.90
2022-10-02T12:52:13.150Z,17.90
2022-10-02T12:53:13.649Z,18.20
2022-10-02T12:54:15.389Z,17.60
2022-10-02T12:55:13.277Z,18.20
2022-10-02T12:56:13.492Z,18.60
2022-10-02T12:57:13.525Z,18.70
2022-10-02T12:58:18.738Z,18.80